createdAt,value
2018-06-18T00:01:09.489Z,1.77
2018-06-18T00:03:38.778Z,1.50
2018-06-18T00:06:08.032Z,1.73
2018-06-18T00:08:37.278Z,1.70
2018-06-18T00:11:06.634Z,1.87
2018-06-18T00:13:35.902Z,1.77
2018-06-18T00:16:05.338Z,1.80
2018-06-18T00:18:34.562Z,1.60
2018-06-18T00:21:03.834Z,1.70
2018-06-18T00:23:33.079Z,1.80
2018-06-18T00:26:02.415Z,1.80
2018-06-18T00:28:31.676Z,1.90
2018-06-18T00:31:01.049Z,1.87
2018-06-18T00:33:30.310Z,1.87
2018-06-18T00:35:59.585Z,1.80
2018-06-18T00:38:28.840Z,1.90
2018-06-18T00:40:58.243Z,1.80
2018-06-18T00:43:27.601Z,1.53
2018-06-18T00:45:56.827Z,1.93
2018-06-18T00:48:26.144Z,1.90
2018-06-18T00:50:55.519Z,1.70
2018-06-18T00:53:24.764Z,1.60
2018-06-18T00:56:05.277Z,1.80
2018-06-18T00:58:34.768Z,1.77
2018-06-18T01:01:04.061Z,2.10
2018-06-18T01:03:33.502Z,2.17
2018-06-18T01:06:02.803Z,1.80
2018-06-18T01:08:32.082Z,1.73
2018-06-18T01:11:01.958Z,1.80
2018-06-18T01:13:31.233Z,1.70
2018-06-18T01:16:00.508Z,1.80
2018-06-18T01:18:29.748Z,1.83
2018-06-18T01:20:58.981Z,1.90
2018-06-18T01:25:36.250Z,1.80
2018-06-18T01:28:06.132Z,1.70
2018-06-18T01:30:36.058Z,1.93
2018-06-18T01:33:05.875Z,2.00
2018-06-18T01:35:35.145Z,1.80
2018-06-18T01:38:04.481Z,1.80
2018-06-18T01:40:33.725Z,2.07
2018-06-18T01:43:02.996Z,1.90
2018-06-18T01:45:32.275Z,1.73
2018-06-18T01:48:01.634Z,1.93
2018-06-18T01:50:31.093Z,1.83
2018-06-18T01:53:00.344Z,1.67
2018-06-18T01:55:29.618Z,1.70
2018-06-18T01:57:58.884Z,1.87
2018-06-18T02:00:28.208Z,2.00
2018-06-18T02:02:57.563Z,2.03
2018-06-18T02:05:26.794Z,1.90
2018-06-18T02:07:56.101Z,2.00
2018-06-18T02:10:25.405Z,1.90
2018-06-18T02:12:54.666Z,2.00
2018-06-18T02:15:24.296Z,1.90
2018-06-18T02:17:53.694Z,1.90
2018-06-18T02:20:22.964Z,1.83
2018-06-18T02:22:52.302Z,1.90
2018-06-18T02:25:21.553Z,1.70
2018-06-18T02:27:55.959Z,1.77
2018-06-18T02:30:30.446Z,1.97
2018-06-18T02:33:05.148Z,1.77
2018-06-18T02:35:39.691Z,2.10
2018-06-18T02:38:14.374Z,1.93
2018-06-18T02:40:46.549Z,1.73
2018-06-18T02:43:18.650Z,2.00
2018-06-18T02:45:47.951Z,1.90
2018-06-18T02:48:17.834Z,2.13
2018-06-18T02:50:47.081Z,2.23
2018-06-18T02:53:16.386Z,1.80
2018-06-18T02:55:47.280Z,2.30
2018-06-18T02:58:17.302Z,1.97
2018-06-18T03:00:46.552Z,2.30
2018-06-18T03:03:15.814Z,1.80
2018-06-18T03:05:45.093Z,1.93
2018-06-18T03:08:14.347Z,2.00
2018-06-18T03:10:43.624Z,2.23
2018-06-18T03:13:12.921Z,2.10
2018-06-18T03:15:42.220Z,2.00
2018-06-18T03:18:15.734Z,2.17
2018-06-18T03:21:48.497Z,1.90
2018-06-18T03:24:23.165Z,2.17
2018-06-18T03:26:57.729Z,1.90
2018-06-18T03:29:30.985Z,2.10
2018-06-18T03:32:02.298Z,2.30
2018-06-18T03:34:31.538Z,2.07
2018-06-18T03:37:01.271Z,2.20
2018-06-18T03:39:30.539Z,2.20
2018-06-18T03:41:59.830Z,2.00
2018-06-18T03:45:32.587Z,2.30
2018-06-18T03:48:05.843Z,2.07
2018-06-18T03:50:35.357Z,1.90
2018-06-18T03:53:05.082Z,2.23
2018-06-18T03:55:43.406Z,2.40
2018-06-18T03:58:12.626Z,2.30
2018-06-18T04:01:35.769Z,2.23
2018-06-18T04:04:12.118Z,2.10
2018-06-18T04:06:46.806Z,2.53
2018-06-18T04:09:21.332Z,2.27
2018-06-18T04:11:55.929Z,2.83
2018-06-18T04:14:25.230Z,2.33
2018-06-18T04:16:54.594Z,2.30
2018-06-18T04:19:23.956Z,2.10
2018-06-18T04:21:53.315Z,2.43
2018-06-18T04:24:23.117Z,2.40
2018-06-18T04:26:54.747Z,2.60
2018-06-18T04:29:24.081Z,2.10
2018-06-18T04:31:54.331Z,2.23
2018-06-18T04:34:27.259Z,2.67
2018-06-18T04:36:58.354Z,3.13
2018-06-18T04:39:28.079Z,2.50
2018-06-18T04:42:03.207Z,2.50
2018-06-18T04:44:37.887Z,2.60
2018-06-18T04:47:12.325Z,3.30
2018-06-18T04:49:46.990Z,2.87
2018-06-18T04:52:17.376Z,2.80
2018-06-18T04:54:47.546Z,2.90
2018-06-18T04:57:20.600Z,2.87
2018-06-18T05:00:16.543Z,3.43
2018-06-18T05:02:48.901Z,3.50
2018-06-18T05:05:27.095Z,3.53
2018-06-18T05:08:05.682Z,4.80
2018-06-18T05:10:36.118Z,4.60
2018-06-18T05:13:05.931Z,4.43
2018-06-18T05:15:38.892Z,3.90
2018-06-18T05:18:09.990Z,4.53
2018-06-18T05:20:40.514Z,5.13
2018-06-18T05:23:16.540Z,4.70
2018-06-18T05:26:00.737Z,4.10
2018-06-18T05:28:30.019Z,5.33
2018-06-18T05:30:59.302Z,4.00
2018-06-18T05:33:28.546Z,4.10
2018-06-18T05:35:57.823Z,4.50
2018-06-18T05:38:30.678Z,4.30
2018-06-18T05:41:00.350Z,5.43
2018-06-18T05:43:30.262Z,7.23
2018-06-18T05:45:59.594Z,11.70
2018-06-18T05:48:28.862Z,13.90
2018-06-18T05:50:58.141Z,15.53
2018-06-18T05:53:27.418Z,10.97
2018-06-18T05:55:56.698Z,28.93
2018-06-18T05:58:25.973Z,27.57
2018-06-18T06:00:55.280Z,25.17
2018-06-18T06:03:24.569Z,25.40
2018-06-18T06:05:54.122Z,18.17
2018-06-18T06:08:23.395Z,17.97
2018-06-18T06:10:52.699Z,11.73
2018-06-18T06:13:21.981Z,11.33
2018-06-18T06:15:51.237Z,10.00
2018-06-18T06:18:20.502Z,9.40
2018-06-18T06:20:54.146Z,9.73
2018-06-18T06:23:23.431Z,8.90
2018-06-18T06:25:52.685Z,9.23
2018-06-18T06:28:22.668Z,8.60
2018-06-18T06:30:51.942Z,8.70
2018-06-18T06:33:21.791Z,8.33
2018-06-18T06:35:51.412Z,7.47
2018-06-18T06:38:20.656Z,7.67
2018-06-18T06:40:49.902Z,7.70
2018-06-18T06:43:19.318Z,7.20
2018-06-18T06:45:48.573Z,7.17
2018-06-18T06:48:17.809Z,6.70
2018-06-18T06:50:47.060Z,6.47
2018-06-18T06:53:16.450Z,5.93
2018-06-18T06:55:45.759Z,6.43
2018-06-18T06:58:15.186Z,6.00
2018-06-18T07:00:44.479Z,5.73
2018-06-18T07:03:13.761Z,5.63
2018-06-18T07:05:43.045Z,5.67
2018-06-18T07:08:12.339Z,5.33
2018-06-18T07:10:41.595Z,5.17
2018-06-18T07:13:10.902Z,5.87
2018-06-18T07:15:39.898Z,5.27
2018-06-18T07:18:09.142Z,5.03
2018-06-18T07:20:38.425Z,4.50
2018-06-18T07:23:07.434Z,4.20
2018-06-18T07:25:36.461Z,4.20
2018-06-18T07:28:05.622Z,4.30
2018-06-18T07:30:35.118Z,3.93
2018-06-18T07:33:04.128Z,3.70
2018-06-18T07:35:33.417Z,4.03
2018-06-18T07:38:02.689Z,4.07
2018-06-18T07:40:32.007Z,3.77
2018-06-18T07:43:01.242Z,3.77
2018-06-18T07:45:30.563Z,3.77
2018-06-18T07:47:59.895Z,3.73
2018-06-18T07:50:48.838Z,3.70
2018-06-18T07:53:20.499Z,3.53
2018-06-18T07:55:54.588Z,3.53
2018-06-18T07:58:28.165Z,3.77
2018-06-18T08:01:04.724Z,3.47
2018-06-18T08:03:37.233Z,3.50
2018-06-18T08:06:09.275Z,3.37
2018-06-18T08:08:38.610Z,3.60
2018-06-18T08:11:07.873Z,3.13
2018-06-18T08:13:37.133Z,2.87
2018-06-18T08:16:06.601Z,3.47
2018-06-18T08:18:35.870Z,3.40
2018-06-18T08:21:05.165Z,3.37
2018-06-18T08:23:34.670Z,3.07
2018-06-18T08:26:03.918Z,2.97
2018-06-18T08:28:33.361Z,2.87
2018-06-18T08:31:03.008Z,2.60
2018-06-18T08:33:32.341Z,2.83
2018-06-18T08:36:01.883Z,2.63
2018-06-18T08:38:31.118Z,2.70
2018-06-18T08:41:00.397Z,2.50
2018-06-18T08:43:29.670Z,3.20
2018-06-18T08:45:58.950Z,2.80
2018-06-18T08:48:33.543Z,2.97
2018-06-18T08:51:08.141Z,2.60
2018-06-18T08:53:42.709Z,2.70
2018-06-18T08:56:16.942Z,2.57
2018-06-18T08:58:51.380Z,2.67
2018-06-18T09:01:24.388Z,2.57
2018-06-18T09:03:57.856Z,2.67
2018-06-18T09:06:27.157Z,2.97
2018-06-18T09:08:57.717Z,3.00
2018-06-18T09:11:27.414Z,2.93
2018-06-18T09:13:56.967Z,2.60
2018-06-18T09:16:26.210Z,2.63
2018-06-18T09:18:55.486Z,3.03
2018-06-18T09:21:24.757Z,2.93
2018-06-18T09:23:53.997Z,3.50
2018-06-18T09:26:23.250Z,3.00
2018-06-18T09:28:52.541Z,2.93
2018-06-18T09:31:21.820Z,2.83
2018-06-18T09:33:51.094Z,2.73
2018-06-18T09:36:21.749Z,2.90
2018-06-18T09:38:51.181Z,3.60
2018-06-18T09:41:20.450Z,3.10
2018-06-18T09:43:50.416Z,2.80
2018-06-18T09:46:19.778Z,2.97
2018-06-18T09:48:54.426Z,3.03
2018-06-18T09:51:28.938Z,3.30
2018-06-18T09:54:03.486Z,3.60
2018-06-18T09:56:38.137Z,2.90
2018-06-18T09:59:12.839Z,2.60
2018-06-18T10:01:42.115Z,2.77
2018-06-18T10:04:11.529Z,3.20
2018-06-18T10:06:40.861Z,2.87
2018-06-18T10:09:11.142Z,3.30
2018-06-18T10:11:40.442Z,2.97
2018-06-18T10:14:10.928Z,2.80
2018-06-18T10:16:40.255Z,3.10
2018-06-18T10:19:09.480Z,2.90
2018-06-18T10:21:38.795Z,2.80
2018-06-18T10:24:08.093Z,2.90
2018-06-18T10:26:37.326Z,2.90
2018-06-18T10:29:06.691Z,3.07
2018-06-18T10:31:35.973Z,2.70
2018-06-18T10:34:10.470Z,2.87
2018-06-18T10:36:45.268Z,2.70
2018-06-18T10:39:19.907Z,2.50
2018-06-18T10:41:54.458Z,2.60
2018-06-18T10:44:23.759Z,2.50
2018-06-18T10:46:53.039Z,2.70
2018-06-18T10:49:22.334Z,2.70
2018-06-18T10:51:51.678Z,2.43
2018-06-18T10:54:20.954Z,3.03
2018-06-18T10:56:50.224Z,2.60
2018-06-18T10:59:20.034Z,2.50
2018-06-18T11:01:49.284Z,2.80
2018-06-18T11:04:25.174Z,2.53
2018-06-18T11:06:54.488Z,2.63
2018-06-18T11:09:23.734Z,2.30
2018-06-18T11:11:53.194Z,2.23
2018-06-18T11:14:22.459Z,2.10
2018-06-18T11:16:57.522Z,2.70
2018-06-18T11:19:32.130Z,2.20
2018-06-18T11:22:06.221Z,2.60
2018-06-18T11:24:40.871Z,2.47
2018-06-18T11:27:11.193Z,2.40
2018-06-18T11:29:40.754Z,2.33
2018-06-18T11:32:10.037Z,2.40
2018-06-18T11:34:39.377Z,2.20
2018-06-18T11:37:08.656Z,2.30
2018-06-18T11:39:38.172Z,2.20
2018-06-18T11:42:07.524Z,2.23
2018-06-18T11:44:36.671Z,2.10
2018-06-18T11:47:06.003Z,2.30
2018-06-18T11:49:35.260Z,2.00
2018-06-18T11:52:04.941Z,2.30
2018-06-18T11:54:34.873Z,2.30
2018-06-18T11:57:04.152Z,2.30
2018-06-18T11:59:38.648Z,2.10
2018-06-18T12:02:13.502Z,2.27
2018-06-18T12:04:48.137Z,2.20
2018-06-18T12:07:22.676Z,2.00
2018-06-18T12:09:52.820Z,2.13
2018-06-18T12:12:22.130Z,2.30
2018-06-18T12:14:51.517Z,2.37
2018-06-18T12:17:20.811Z,1.90
2018-06-18T12:19:50.061Z,2.73
2018-06-18T12:22:19.407Z,2.20
2018-06-18T12:24:48.705Z,1.97
2018-06-18T12:27:21.002Z,2.17
2018-06-18T12:29:50.272Z,2.50
2018-06-18T12:32:19.517Z,2.37
2018-06-18T12:34:48.805Z,2.43
2018-06-18T12:37:18.093Z,2.20
2018-06-18T12:39:48.079Z,2.13
2018-06-18T12:42:17.345Z,2.30
2018-06-18T12:44:52.005Z,2.40
2018-06-18T12:47:26.409Z,2.00
2018-06-18T12:50:00.657Z,2.03
2018-06-18T12:52:35.233Z,2.07
2018-06-18T12:55:09.938Z,2.20
2018-06-18T12:57:39.275Z,2.40
2018-06-18T13:00:08.602Z,1.93
2018-06-18T13:02:41.510Z,2.03
2018-06-18T13:05:10.747Z,2.40
2018-06-18T13:07:39.993Z,2.10
2018-06-18T13:10:09.329Z,2.20
2018-06-18T13:12:38.588Z,2.10
2018-06-18T13:15:07.861Z,1.90
2018-06-18T13:17:37.111Z,1.90
2018-06-18T13:20:06.399Z,2.10
2018-06-18T13:22:35.697Z,2.50
2018-06-18T13:25:05.045Z,2.00
2018-06-18T13:27:39.586Z,2.07
2018-06-18T13:30:08.867Z,2.37
2018-06-18T13:32:38.365Z,1.80
2018-06-18T13:35:07.821Z,2.20
2018-06-18T13:37:42.469Z,1.70
2018-06-18T13:40:17.002Z,2.10
2018-06-18T13:42:51.634Z,2.10
2018-06-18T13:45:26.210Z,2.00
2018-06-18T13:48:00.897Z,2.33
2018-06-18T13:50:30.177Z,2.10
2018-06-18T13:52:59.443Z,2.50
2018-06-18T13:55:28.796Z,2.00
2018-06-18T13:57:58.072Z,2.17
2018-06-18T14:00:27.354Z,2.60
2018-06-18T14:02:56.669Z,2.20
2018-06-18T14:05:25.945Z,1.90
2018-06-18T14:07:55.191Z,2.30
2018-06-18T14:10:24.619Z,2.40
2018-06-18T14:12:55.182Z,2.27
2018-06-18T14:15:24.509Z,2.10
2018-06-18T14:17:54.651Z,2.10
2018-06-18T14:20:25.404Z,1.93
2018-06-18T14:22:54.905Z,2.33
2018-06-18T14:25:24.403Z,1.80
2018-06-18T14:27:53.687Z,2.30
2018-06-18T14:30:28.192Z,1.90
2018-06-18T14:33:02.633Z,2.03
2018-06-18T14:35:37.166Z,2.20
2018-06-18T14:38:12.001Z,2.40
2018-06-18T14:40:41.295Z,2.10
2018-06-18T14:43:10.594Z,2.10
2018-06-18T14:45:39.899Z,1.97
2018-06-18T14:48:09.340Z,2.37
2018-06-18T14:50:38.528Z,2.77
2018-06-18T14:53:07.859Z,2.03
2018-06-18T14:55:37.109Z,2.33
2018-06-18T14:58:06.374Z,2.53
2018-06-18T15:00:35.943Z,1.90
2018-06-18T15:03:05.210Z,2.03
2018-06-18T15:05:36.669Z,2.30
2018-06-18T15:08:06.049Z,2.30
2018-06-18T15:10:40.554Z,2.13
2018-06-18T15:13:12.211Z,2.37
2018-06-18T15:15:46.687Z,2.20
2018-06-18T15:18:15.977Z,2.43
2018-06-18T15:20:45.245Z,2.30
2018-06-18T15:23:14.511Z,2.63
2018-06-18T15:25:45.714Z,2.00
2018-06-18T15:28:14.977Z,2.00
2018-06-18T15:30:44.211Z,2.53
2018-06-18T15:33:13.463Z,1.77
2018-06-18T15:35:42.761Z,2.07
2018-06-18T15:38:12.050Z,1.90
2018-06-18T15:40:41.289Z,2.20
2018-06-18T15:43:10.545Z,1.97
2018-06-18T15:45:39.861Z,2.40
2018-06-18T15:48:09.152Z,2.00
2018-06-18T15:50:38.456Z,1.90
2018-06-18T15:53:07.727Z,2.10
2018-06-18T15:55:37.027Z,2.23
2018-06-18T15:58:06.326Z,2.13
2018-06-18T16:00:35.592Z,2.40
2018-06-18T16:03:04.911Z,1.80
2018-06-18T16:05:34.168Z,2.00
2018-06-18T16:08:03.436Z,2.33
2018-06-18T16:10:32.698Z,2.40
2018-06-18T16:13:02.007Z,2.20
2018-06-18T16:15:31.262Z,2.20
2018-06-18T16:18:00.641Z,1.90
2018-06-18T16:20:29.879Z,2.00
2018-06-18T16:22:59.132Z,2.00
2018-06-18T16:25:28.531Z,1.90
2018-06-18T16:27:57.800Z,2.03
2018-06-18T16:30:27.064Z,2.13
2018-06-18T16:32:56.481Z,2.10
2018-06-18T16:35:25.795Z,2.10
2018-06-18T16:37:55.154Z,2.27
2018-06-18T16:40:24.403Z,2.00
2018-06-18T16:42:53.662Z,2.00
2018-06-18T16:45:26.101Z,1.97
2018-06-18T16:47:59.697Z,1.90
2018-06-18T16:50:34.232Z,1.63
2018-06-18T16:53:10.834Z,2.00
2018-06-18T16:55:45.134Z,1.70
2018-06-18T16:58:17.326Z,2.30
2018-06-18T17:00:48.019Z,1.70
2018-06-18T17:03:18.326Z,1.70
2018-06-18T17:05:49.012Z,1.60
2018-06-18T17:08:19.487Z,1.60
2018-06-18T17:10:49.718Z,1.77
2018-06-18T17:13:22.078Z,1.77
2018-06-18T17:15:51.358Z,1.87
2018-06-18T17:18:20.775Z,1.70
2018-06-18T17:20:50.050Z,1.90
2018-06-18T17:23:19.352Z,1.80
2018-06-18T17:25:48.547Z,1.77
2018-06-18T17:28:17.808Z,1.93
2018-06-18T17:30:47.071Z,1.67
2018-06-18T17:33:16.359Z,2.23
2018-06-18T17:35:45.614Z,1.63
2018-06-18T17:38:14.879Z,1.53
2018-06-18T17:40:44.162Z,1.80
2018-06-18T17:43:13.431Z,2.10
2018-06-18T17:45:42.725Z,1.90
2018-06-18T17:48:12.040Z,1.63
2018-06-18T17:50:41.309Z,1.60
2018-06-18T17:53:11.304Z,1.90
2018-06-18T17:55:40.644Z,1.80
2018-06-18T17:58:09.938Z,1.60
2018-06-18T18:00:39.218Z,1.70
2018-06-18T18:03:08.499Z,1.87
2018-06-18T18:05:38.620Z,1.70
2018-06-18T18:08:07.883Z,1.80
2018-06-18T18:10:37.187Z,1.60
2018-06-18T18:13:06.631Z,1.77
2018-06-18T18:15:35.814Z,2.00
2018-06-18T18:18:05.139Z,2.03
2018-06-18T18:20:34.397Z,1.80
2018-06-18T18:23:03.921Z,2.10
2018-06-18T18:25:33.174Z,2.10
2018-06-18T18:28:02.438Z,2.00
2018-06-18T18:30:31.767Z,1.80
2018-06-18T18:33:01.014Z,1.67
2018-06-18T18:35:30.658Z,2.00
2018-06-18T18:37:59.896Z,2.20
2018-06-18T18:40:29.350Z,2.27
2018-06-18T18:42:58.626Z,1.80
2018-06-18T18:45:27.930Z,2.10
2018-06-18T18:47:57.213Z,1.90
2018-06-18T18:50:26.523Z,3.20
2018-06-18T18:52:55.786Z,2.57
2018-06-18T18:55:37.666Z,2.33
2018-06-18T18:58:19.681Z,2.47
2018-06-18T19:00:50.042Z,2.30
2018-06-18T19:03:23.183Z,1.87
2018-06-18T19:05:53.863Z,3.47
2018-06-18T19:08:28.653Z,3.93
2018-06-18T19:10:59.482Z,4.23
2018-06-18T19:13:32.571Z,4.00
2018-06-18T19:16:01.830Z,5.03
2018-06-18T19:18:31.962Z,4.63
2018-06-18T19:21:04.996Z,3.73
2018-06-18T19:23:34.254Z,4.17
2018-06-18T19:26:03.598Z,3.80
2018-06-18T19:28:33.819Z,4.10
2018-06-18T19:31:06.814Z,3.73
2018-06-18T19:33:44.595Z,3.90
2018-06-18T19:36:13.859Z,4.00
2018-06-18T19:38:43.130Z,3.77
2018-06-18T19:41:13.158Z,2.97
2018-06-18T19:43:42.383Z,3.33
2018-06-18T19:46:11.658Z,3.77
2018-06-18T19:48:46.232Z,3.57
2018-06-18T19:51:15.566Z,3.30
2018-06-18T19:53:45.264Z,3.47
2018-06-18T19:56:14.591Z,2.97
2018-06-18T19:58:43.968Z,2.83
2018-06-18T20:01:13.222Z,3.40
2018-06-18T20:03:42.479Z,3.67
2018-06-18T20:06:11.842Z,3.00
2018-06-18T20:08:41.126Z,3.17
2018-06-18T20:11:10.523Z,3.10
2018-06-18T20:13:39.832Z,2.70
2018-06-18T20:16:09.088Z,2.70
2018-06-18T20:18:38.358Z,3.40
2018-06-18T20:21:07.642Z,3.33
2018-06-18T20:23:36.968Z,2.90
2018-06-18T20:26:08.625Z,2.53
2018-06-18T20:28:38.014Z,2.90
2018-06-18T20:31:07.284Z,2.70
2018-06-18T20:33:39.400Z,2.77
2018-06-18T20:36:11.118Z,2.80
2018-06-18T20:38:40.379Z,2.73
2018-06-18T20:41:09.950Z,2.57
2018-06-18T20:43:52.219Z,2.80
2018-06-18T20:46:21.482Z,2.97
2018-06-18T20:48:50.715Z,2.80
2018-06-18T20:51:20.122Z,2.30
2018-06-18T20:53:49.367Z,2.43
2018-06-18T20:56:18.645Z,2.53
2018-06-18T20:58:48.174Z,2.20
2018-06-18T21:01:17.425Z,2.43
2018-06-18T21:03:46.710Z,2.90
2018-06-18T21:06:15.997Z,2.33
2018-06-18T21:08:45.305Z,2.30
2018-06-18T21:11:16.314Z,2.47
2018-06-18T21:13:49.422Z,2.60
2018-06-18T21:16:18.661Z,2.37
2018-06-18T21:18:48.882Z,2.50
2018-06-18T21:21:18.160Z,2.17
2018-06-18T21:23:47.414Z,2.23
2018-06-18T21:26:16.791Z,2.13
2018-06-18T21:28:46.091Z,2.50
2018-06-18T21:31:15.331Z,2.20
2018-06-18T21:33:44.609Z,2.30
2018-06-18T21:36:13.862Z,2.37
2018-06-18T21:38:43.146Z,2.23
2018-06-18T21:41:12.412Z,1.90
2018-06-18T21:43:41.719Z,2.20
2018-06-18T21:46:11.025Z,2.20
2018-06-18T21:48:40.309Z,2.50
2018-06-18T21:51:09.574Z,2.60
2018-06-18T21:53:38.829Z,2.57
2018-06-18T21:56:08.101Z,2.20
2018-06-18T21:58:37.376Z,2.20
2018-06-18T22:01:06.668Z,2.40
2018-06-18T22:03:35.958Z,2.63
2018-06-18T22:06:05.715Z,2.80
2018-06-18T22:08:35.008Z,2.50
2018-06-18T22:11:04.311Z,2.63
2018-06-18T22:13:33.603Z,2.57
2018-06-18T22:16:02.859Z,2.80
2018-06-18T22:18:32.189Z,2.50
2018-06-18T22:21:01.449Z,2.83
2018-06-18T22:23:30.718Z,2.70
2018-06-18T22:26:00.282Z,2.43
2018-06-18T22:28:34.348Z,2.53
2018-06-18T22:31:04.305Z,2.73
2018-06-18T22:33:33.610Z,2.40
2018-06-18T22:36:02.899Z,2.67
2018-06-18T22:38:32.173Z,2.60
2018-06-18T22:41:01.459Z,2.37
2018-06-18T22:43:30.713Z,2.40
2018-06-18T22:45:59.963Z,2.43
2018-06-18T22:48:29.209Z,2.17
2018-06-18T22:50:58.445Z,2.50
2018-06-18T22:53:27.918Z,2.43
2018-06-18T22:55:57.165Z,2.40
2018-06-18T22:58:26.435Z,2.00
2018-06-18T23:00:56.854Z,2.10
2018-06-18T23:03:26.119Z,1.80
2018-06-18T23:05:55.433Z,1.83
2018-06-18T23:08:24.716Z,1.90
2018-06-18T23:10:53.992Z,2.40
2018-06-18T23:13:27.227Z,2.17
2018-06-18T23:15:56.502Z,2.10
2018-06-18T23:18:25.730Z,2.07
2018-06-18T23:20:55.108Z,2.13
2018-06-18T23:23:24.383Z,1.80
2018-06-18T23:25:53.707Z,2.17
2018-06-18T23:28:26.796Z,1.70
2018-06-18T23:30:56.027Z,2.10
2018-06-18T23:33:25.266Z,2.07
2018-06-18T23:35:54.513Z,1.70
2018-06-18T23:38:23.456Z,1.80
2018-06-18T23:40:52.584Z,1.77
2018-06-18T23:43:21.656Z,2.00
2018-06-18T23:45:50.854Z,1.90
2018-06-18T23:48:19.780Z,2.10
2018-06-18T23:50:48.905Z,1.90
2018-06-18T23:53:18.172Z,2.00
2018-06-18T23:55:47.466Z,2.07
2018-06-18T23:58:16.729Z,1.70
